createdAt,value
2018-12-10T00:00:53.747Z,8.30
2018-12-10T00:03:31.252Z,8.30
2018-12-10T00:06:04.125Z,8.20
2018-12-10T00:08:34.949Z,8.20
2018-12-10T00:11:05.688Z,8.20
2018-12-10T00:13:36.505Z,8.10
2018-12-10T00:16:07.510Z,8.10
2018-12-10T00:18:38.408Z,8.10
2018-12-10T00:21:09.026Z,8.20
2018-12-10T00:23:39.620Z,8.20
2018-12-10T00:26:10.104Z,8.20
2018-12-10T00:28:41.025Z,8.20
2018-12-10T00:31:11.831Z,8.30
2018-12-10T00:33:42.450Z,8.30
2018-12-10T00:36:13.331Z,8.40
2018-12-10T00:38:44.060Z,8.40
2018-12-10T00:41:14.775Z,8.30
2018-12-10T00:43:45.586Z,8.40
2018-12-10T00:46:16.030Z,8.50
2018-12-10T00:48:46.505Z,8.50
2018-12-10T00:51:17.313Z,8.50
2018-12-10T00:53:47.925Z,8.60
2018-12-10T00:56:18.900Z,8.50
2018-12-10T00:58:49.586Z,8.50
2018-12-10T01:01:20.136Z,8.50
2018-12-10T01:03:51.083Z,8.60
2018-12-10T01:06:21.842Z,8.70
2018-12-10T01:08:52.634Z,8.60
2018-12-10T01:11:23.302Z,8.50
2018-12-10T01:13:54.138Z,8.60
2018-12-10T01:16:24.781Z,8.70
2018-12-10T01:18:55.422Z,8.70
2018-12-10T01:21:26.264Z,8.70
2018-12-10T01:23:57.090Z,8.80
2018-12-10T01:26:27.919Z,8.90
2018-12-10T01:28:58.419Z,9.00
2018-12-10T01:31:29.178Z,8.90
2018-12-10T01:33:59.865Z,8.80
2018-12-10T01:36:30.756Z,8.80
2018-12-10T01:39:01.523Z,8.90
2018-12-10T01:41:32.839Z,8.90
2018-12-10T01:44:03.781Z,8.90
2018-12-10T01:46:34.567Z,8.90
2018-12-10T01:49:05.120Z,8.90
2018-12-10T01:51:35.826Z,8.90
2018-12-10T01:54:06.501Z,8.90
2018-12-10T01:56:37.107Z,8.80
2018-12-10T01:59:07.607Z,8.70
2018-12-10T02:01:38.304Z,8.70
2018-12-10T02:04:09.094Z,8.60
2018-12-10T02:06:40.249Z,8.40
2018-12-10T02:09:10.831Z,8.40
2018-12-10T02:11:41.692Z,8.30
2018-12-10T02:14:12.414Z,8.30
2018-12-10T02:16:43.120Z,8.20
2018-12-10T02:19:13.548Z,8.20
2018-12-10T02:21:44.224Z,8.20
2018-12-10T02:24:14.784Z,8.10
2018-12-10T02:26:45.426Z,8.10
2018-12-10T02:29:16.239Z,8.10
2018-12-10T02:31:46.719Z,8.20
2018-12-10T02:34:17.203Z,8.20
2018-12-10T02:36:47.945Z,8.20
2018-12-10T02:39:18.550Z,8.30
2018-12-10T02:41:49.220Z,8.30
2018-12-10T02:44:21.194Z,8.30
2018-12-10T02:46:51.805Z,8.30
2018-12-10T02:49:22.567Z,8.40
2018-12-10T02:51:53.651Z,8.50
2018-12-10T02:54:24.091Z,8.70
2018-12-10T02:56:55.026Z,8.60
2018-12-10T02:59:25.629Z,8.60
2018-12-10T03:01:56.436Z,8.50
2018-12-10T03:04:27.327Z,8.50
2018-12-10T03:06:58.090Z,8.40
2018-12-10T03:09:28.863Z,8.40
2018-12-10T03:11:59.516Z,8.40
2018-12-10T03:14:30.059Z,8.30
2018-12-10T03:17:01.017Z,8.30
2018-12-10T03:19:31.696Z,8.40
2018-12-10T03:22:02.371Z,8.50
2018-12-10T03:24:33.049Z,8.40
2018-12-10T03:27:03.640Z,8.40
2018-12-10T03:29:34.230Z,8.40
2018-12-10T03:32:05.719Z,8.40
2018-12-10T03:34:36.274Z,8.40
2018-12-10T03:37:06.861Z,8.40
2018-12-10T03:39:37.360Z,8.40
2018-12-10T03:42:08.226Z,8.50
2018-12-10T03:44:38.755Z,8.40
2018-12-10T03:47:09.584Z,8.50
2018-12-10T03:49:40.311Z,8.40
2018-12-10T03:52:11.021Z,8.40
2018-12-10T03:54:41.747Z,8.50
2018-12-10T03:57:12.677Z,8.40
2018-12-10T03:59:43.223Z,8.30
2018-12-10T04:02:15.111Z,8.30
2018-12-10T04:04:46.104Z,8.30
2018-12-10T04:07:16.866Z,8.30
2018-12-10T04:09:47.840Z,8.50
2018-12-10T04:12:18.450Z,8.80
2018-12-10T04:14:49.250Z,8.90
2018-12-10T04:17:20.085Z,8.90
2018-12-10T04:19:51.354Z,8.90
2018-12-10T04:22:22.253Z,8.80
2018-12-10T04:24:52.713Z,8.70
2018-12-10T04:27:23.633Z,8.60
2018-12-10T04:29:54.358Z,8.60
2018-12-10T04:32:24.972Z,8.70
2018-12-10T04:34:55.509Z,8.70
2018-12-10T04:37:26.259Z,8.70
2018-12-10T04:39:57.019Z,8.70
2018-12-10T04:42:27.643Z,8.70
2018-12-10T04:44:58.232Z,8.80
2018-12-10T04:47:29.070Z,8.80
2018-12-10T04:49:59.599Z,9.00
2018-12-10T04:52:30.478Z,9.40
2018-12-10T04:55:01.178Z,9.60
2018-12-10T04:57:33.239Z,9.50
2018-12-10T05:00:04.363Z,9.40
2018-12-10T05:02:35.092Z,9.30
2018-12-10T05:05:06.136Z,9.20
2018-12-10T05:07:36.868Z,9.30
2018-12-10T05:10:07.889Z,9.20
2018-12-10T05:12:38.514Z,9.30
2018-12-10T05:15:09.097Z,9.20
2018-12-10T05:17:39.671Z,9.20
2018-12-10T05:20:10.771Z,9.40
2018-12-10T05:22:41.534Z,9.50
2018-12-10T05:25:12.350Z,9.50
2018-12-10T05:27:43.183Z,9.30
2018-12-10T05:30:14.189Z,9.20
2018-12-10T05:32:45.026Z,9.20
2018-12-10T05:35:15.788Z,9.10
2018-12-10T05:37:47.085Z,9.00
2018-12-10T05:40:18.282Z,9.00
2018-12-10T05:42:48.939Z,9.10
2018-12-10T05:45:23.397Z,9.10
2018-12-10T05:47:54.516Z,9.20
2018-12-10T05:50:25.209Z,9.20
2018-12-10T05:52:55.794Z,9.20
2018-12-10T05:55:26.345Z,9.30
2018-12-10T05:57:56.899Z,9.20
2018-12-10T06:00:27.507Z,9.20
2018-12-10T06:02:58.047Z,9.20
2018-12-10T06:05:28.698Z,9.30
2018-12-10T06:07:59.546Z,9.40
2018-12-10T06:10:30.365Z,9.60
2018-12-10T06:13:01.111Z,9.60
2018-12-10T06:15:31.742Z,9.50
2018-12-10T06:18:02.415Z,9.30
2018-12-10T06:20:33.000Z,9.30
2018-12-10T06:23:03.580Z,9.30
2018-12-10T06:25:34.168Z,9.30
2018-12-10T06:28:04.902Z,9.20
2018-12-10T06:30:35.429Z,9.30
2018-12-10T06:33:07.426Z,9.30
2018-12-10T06:35:38.574Z,9.30
2018-12-10T06:38:09.212Z,9.20
2018-12-10T06:40:39.803Z,9.20
2018-12-10T06:43:10.405Z,9.20
2018-12-10T06:45:41.262Z,9.20
2018-12-10T06:48:12.112Z,9.20
2018-12-10T06:50:42.625Z,9.30
2018-12-10T06:53:13.327Z,9.30
2018-12-10T06:55:43.871Z,9.40
2018-12-10T06:58:14.435Z,9.40
2018-12-10T07:00:45.453Z,9.50
2018-12-10T07:03:16.084Z,9.50
2018-12-10T07:05:46.697Z,9.50
2018-12-10T07:08:23.431Z,9.60
2018-12-10T07:10:54.506Z,9.80
2018-12-10T07:13:25.401Z,10.00
2018-12-10T07:15:56.049Z,10.00
2018-12-10T07:18:26.916Z,10.10
2018-12-10T07:20:57.481Z,10.20
2018-12-10T07:23:28.077Z,10.40
2018-12-10T07:25:58.979Z,10.60
2018-12-10T07:28:29.607Z,10.80
2018-12-10T07:31:00.260Z,10.80
2018-12-10T07:33:31.325Z,11.00
2018-12-10T07:36:01.808Z,11.20
2018-12-10T07:38:32.521Z,11.30
2018-12-10T07:41:03.363Z,11.20
2018-12-10T07:43:34.173Z,11.20
2018-12-10T07:46:04.962Z,11.10
2018-12-10T07:48:35.726Z,11.10
2018-12-10T07:51:06.371Z,11.20
2018-12-10T07:53:37.235Z,11.20
2018-12-10T07:56:08.042Z,11.20
2018-12-10T07:58:38.767Z,11.40
2018-12-10T08:01:09.498Z,11.90
2018-12-10T08:03:40.503Z,12.10
2018-12-10T08:06:10.987Z,12.20
2018-12-10T08:08:41.826Z,12.30
2018-12-10T08:11:12.692Z,12.30
2018-12-10T08:13:43.628Z,12.30
2018-12-10T08:16:14.427Z,12.30
2018-12-10T08:18:45.253Z,12.40
2018-12-10T08:21:16.207Z,12.30
2018-12-10T08:23:46.784Z,12.40
2018-12-10T08:26:17.430Z,12.40
2018-12-10T08:28:48.207Z,12.40
2018-12-10T08:31:19.202Z,12.40
2018-12-10T08:33:50.175Z,12.40
2018-12-10T08:36:21.038Z,12.40
2018-12-10T08:38:51.616Z,12.30
2018-12-10T08:41:22.582Z,12.20
2018-12-10T08:43:53.255Z,12.20
2018-12-10T08:46:23.947Z,12.30
2018-12-10T08:48:54.970Z,12.30
2018-12-10T08:51:25.473Z,12.00
2018-12-10T08:53:56.668Z,11.80
2018-12-10T08:56:27.715Z,11.90
2018-12-10T08:58:58.361Z,12.00
2018-12-10T09:01:29.053Z,12.10
2018-12-10T09:03:59.765Z,12.00
2018-12-10T09:06:30.363Z,11.90
2018-12-10T09:09:01.339Z,11.90
2018-12-10T09:11:32.178Z,11.70
2018-12-10T09:14:02.739Z,11.70
2018-12-10T09:16:33.204Z,11.70
2018-12-10T09:19:04.975Z,11.70
2018-12-10T09:21:35.650Z,11.70
2018-12-10T09:24:06.626Z,11.80
2018-12-10T09:26:38.311Z,11.80
2018-12-10T09:29:08.917Z,12.00
2018-12-10T09:31:39.679Z,12.20
2018-12-10T09:34:10.200Z,12.30
2018-12-10T09:36:40.897Z,12.30
2018-12-10T09:39:11.901Z,12.30
2018-12-10T09:41:45.113Z,12.30
2018-12-10T09:44:22.297Z,12.40
2018-12-10T09:46:58.870Z,12.30
2018-12-10T09:49:26.148Z,12.50
2018-12-10T09:51:56.902Z,12.50
2018-12-10T09:54:27.628Z,12.50
2018-12-10T09:56:58.392Z,12.60
2018-12-10T09:59:29.169Z,12.80
2018-12-10T10:01:59.857Z,13.00
2018-12-10T10:04:30.450Z,13.10
2018-12-10T10:07:00.926Z,13.80
2018-12-10T10:09:31.717Z,14.70
2018-12-10T10:12:03.835Z,14.60
2018-12-10T10:14:34.565Z,14.80
2018-12-10T10:17:05.623Z,14.80
2018-12-10T10:19:36.356Z,14.70
2018-12-10T10:22:06.855Z,14.60
2018-12-10T10:24:37.625Z,14.50
2018-12-10T10:27:08.484Z,14.40
2018-12-10T10:29:39.411Z,14.10
2018-12-10T10:32:10.082Z,13.90
2018-12-10T10:34:40.693Z,13.70
2018-12-10T10:37:11.100Z,13.60
2018-12-10T10:39:41.842Z,13.50
2018-12-10T10:42:14.506Z,13.30
2018-12-10T10:44:45.213Z,13.10
2018-12-10T10:47:16.053Z,13.10
2018-12-10T10:49:46.727Z,13.00
2018-12-10T10:52:17.344Z,12.80
2018-12-10T10:54:48.546Z,12.70
2018-12-10T10:57:19.022Z,12.60
2018-12-10T10:59:49.621Z,12.60
2018-12-10T11:02:25.386Z,12.50
2018-12-10T11:04:55.753Z,12.50
2018-12-10T11:07:26.421Z,12.50
2018-12-10T11:09:56.896Z,12.40
2018-12-10T11:12:27.318Z,12.40
2018-12-10T11:14:58.056Z,12.40
2018-12-10T11:17:28.870Z,12.30
2018-12-10T11:19:59.699Z,12.30
2018-12-10T11:22:30.357Z,12.20
2018-12-10T11:25:00.954Z,12.10
2018-12-10T11:27:32.745Z,12.00
2018-12-10T11:30:03.472Z,12.10
2018-12-10T11:32:34.419Z,12.10
2018-12-10T11:35:06.202Z,12.10
2018-12-10T11:37:36.951Z,12.00
2018-12-10T11:40:07.482Z,12.00
2018-12-10T11:42:38.262Z,11.90
2018-12-10T11:45:09.001Z,11.90
2018-12-10T11:47:39.605Z,12.00
2018-12-10T11:50:10.386Z,11.90
2018-12-10T11:52:41.093Z,11.90
2018-12-10T11:55:11.679Z,11.80
2018-12-10T11:57:42.502Z,11.80
2018-12-10T12:00:13.102Z,11.80
2018-12-10T12:02:43.657Z,11.80
2018-12-10T12:05:14.467Z,11.70
2018-12-10T12:07:45.112Z,11.70
2018-12-10T12:10:16.204Z,11.80
2018-12-10T12:12:47.039Z,11.70
2018-12-10T12:15:17.730Z,11.70
2018-12-10T12:17:48.113Z,11.70
2018-12-10T12:20:18.978Z,11.70
2018-12-10T12:22:49.524Z,11.90
2018-12-10T12:25:20.132Z,12.00
2018-12-10T12:27:51.146Z,12.00
2018-12-10T12:30:21.907Z,12.10
2018-12-10T12:32:53.099Z,12.30
2018-12-10T12:35:23.621Z,12.40
2018-12-10T12:37:54.003Z,12.40
2018-12-10T12:40:24.672Z,12.40
2018-12-10T12:42:55.336Z,12.30
2018-12-10T12:45:25.990Z,12.30
2018-12-10T12:47:56.551Z,12.30
2018-12-10T12:50:27.235Z,12.30
2018-12-10T12:52:57.862Z,12.20
2018-12-10T12:55:28.420Z,12.20
2018-12-10T12:57:59.121Z,12.20
2018-12-10T13:00:30.130Z,12.10
2018-12-10T13:03:00.960Z,12.00
2018-12-10T13:05:31.699Z,11.90
2018-12-10T13:08:02.493Z,11.80
2018-12-10T13:10:33.366Z,11.70
2018-12-10T13:13:04.032Z,11.70
2018-12-10T13:15:35.280Z,11.70
2018-12-10T13:18:05.965Z,11.70
2018-12-10T13:20:36.481Z,11.80
2018-12-10T13:23:07.216Z,12.00
2018-12-10T13:25:37.812Z,12.20
2018-12-10T13:28:08.407Z,12.40
2018-12-10T13:30:39.423Z,12.50
2018-12-10T13:33:10.153Z,12.50
2018-12-10T13:35:40.981Z,12.50
2018-12-10T13:38:12.626Z,12.50
2018-12-10T13:40:43.681Z,12.40
2018-12-10T13:43:14.357Z,12.40
2018-12-10T13:45:45.215Z,12.10
2018-12-10T13:48:16.145Z,12.10
2018-12-10T13:50:47.229Z,12.00
2018-12-10T13:53:18.088Z,11.90
2018-12-10T13:55:48.868Z,11.80
2018-12-10T13:58:19.736Z,11.70
2018-12-10T14:00:51.313Z,11.60
2018-12-10T14:03:22.233Z,11.60
2018-12-10T14:05:52.778Z,11.50
2018-12-10T14:08:23.401Z,11.30
2018-12-10T14:10:57.005Z,11.30
2018-12-10T14:13:33.502Z,11.20
2018-12-10T14:16:08.858Z,11.30
2018-12-10T14:18:40.419Z,11.40
2018-12-10T14:21:11.251Z,11.50
2018-12-10T14:23:42.290Z,11.40
2018-12-10T14:26:13.007Z,11.30
2018-12-10T14:28:43.677Z,11.40
2018-12-10T14:31:14.231Z,11.40
2018-12-10T14:33:44.864Z,11.40
2018-12-10T14:36:15.892Z,11.20
2018-12-10T14:38:47.247Z,11.10
2018-12-10T14:41:18.081Z,11.10
2018-12-10T14:43:48.644Z,11.00
2018-12-10T14:46:19.404Z,11.00
2018-12-10T14:48:50.028Z,10.90
2018-12-10T14:51:20.741Z,10.90
2018-12-10T14:53:51.406Z,10.90
2018-12-10T14:56:21.987Z,10.80
2018-12-10T14:58:52.689Z,10.80
2018-12-10T15:01:23.422Z,10.70
2018-12-10T15:03:54.002Z,10.70
2018-12-10T15:06:24.894Z,10.70
2018-12-10T15:08:55.540Z,10.70
2018-12-10T15:11:27.229Z,10.70
2018-12-10T15:13:57.928Z,10.60
2018-12-10T15:16:28.759Z,10.60
2018-12-10T15:18:59.876Z,10.60
2018-12-10T15:21:30.440Z,10.60
2018-12-10T15:24:01.265Z,10.60
2018-12-10T15:26:31.865Z,10.60
2018-12-10T15:29:02.855Z,10.60
2018-12-10T15:31:33.733Z,10.60
2018-12-10T15:34:04.628Z,10.60
2018-12-10T15:36:35.231Z,10.50
2018-12-10T15:39:07.486Z,10.50
2018-12-10T15:41:38.370Z,10.50
2018-12-10T15:44:09.121Z,10.40
2018-12-10T15:46:39.896Z,10.40
2018-12-10T15:49:10.628Z,10.40
2018-12-10T15:51:41.421Z,10.40
2018-12-10T15:54:12.133Z,10.40
2018-12-10T15:56:44.137Z,10.40
2018-12-10T15:59:14.855Z,10.40
2018-12-10T16:01:45.781Z,10.40
2018-12-10T16:04:16.597Z,10.40
2018-12-10T16:06:47.453Z,10.40
2018-12-10T16:09:18.139Z,10.40
2018-12-10T16:11:48.822Z,10.40
2018-12-10T16:14:19.572Z,10.30
2018-12-10T16:16:50.167Z,10.30
2018-12-10T16:19:20.750Z,10.30
2018-12-10T16:21:51.473Z,10.30
2018-12-10T16:24:22.001Z,10.30
2018-12-10T16:26:52.675Z,10.30
2018-12-10T16:29:23.364Z,10.30
2018-12-10T16:31:54.282Z,10.30
2018-12-10T16:34:26.144Z,10.20
2018-12-10T16:36:56.910Z,10.20
2018-12-10T16:39:27.734Z,10.20
2018-12-10T16:41:58.405Z,10.30
2018-12-10T16:44:31.054Z,10.30
2018-12-10T16:47:01.954Z,10.30
2018-12-10T16:49:32.715Z,10.30
2018-12-10T16:52:03.475Z,10.20
2018-12-10T16:54:34.281Z,10.20
2018-12-10T16:57:05.243Z,10.20
2018-12-10T16:59:36.120Z,10.20
2018-12-10T17:02:07.294Z,10.20
2018-12-10T17:04:38.004Z,10.30
2018-12-10T17:07:09.920Z,10.30
2018-12-10T17:09:41.145Z,10.40
2018-12-10T17:12:11.849Z,10.40
2018-12-10T17:14:42.606Z,10.30
2018-12-10T17:17:13.303Z,10.40
2018-12-10T17:19:44.018Z,10.40
2018-12-10T17:22:14.891Z,10.30
2018-12-10T17:24:45.546Z,9.90
2018-12-10T17:27:16.070Z,10.30
2018-12-10T17:29:46.740Z,10.30
2018-12-10T17:32:17.590Z,10.40
2018-12-10T17:34:49.459Z,10.30
2018-12-10T17:37:23.366Z,10.30
2018-12-10T17:39:54.335Z,10.20
2018-12-10T17:42:25.909Z,10.20
2018-12-10T17:44:56.404Z,10.20
2018-12-10T17:47:27.220Z,10.20
2018-12-10T17:49:58.372Z,10.10
2018-12-10T17:52:29.039Z,10.10
2018-12-10T17:54:59.823Z,10.10
2018-12-10T17:57:30.761Z,10.10
2018-12-10T18:00:01.400Z,10.10
2018-12-10T18:02:33.272Z,10.10
2018-12-10T18:05:05.031Z,10.10
2018-12-10T18:07:35.687Z,10.10
2018-12-10T18:10:07.100Z,10.10
2018-12-10T18:12:38.707Z,10.10
2018-12-10T18:15:09.533Z,10.10
2018-12-10T18:17:40.187Z,10.00
2018-12-10T18:20:12.807Z,10.00
2018-12-10T18:22:45.854Z,10.00
2018-12-10T18:25:16.604Z,10.00
2018-12-10T18:27:47.261Z,10.10
2018-12-10T18:30:19.102Z,10.10
2018-12-10T18:32:50.341Z,10.00
2018-12-10T18:35:22.269Z,10.00
2018-12-10T18:37:52.843Z,10.10
2018-12-10T18:40:23.967Z,10.10
2018-12-10T18:42:54.909Z,10.00
2018-12-10T18:45:25.521Z,10.10
2018-12-10T18:47:56.160Z,10.10
2018-12-10T18:50:26.821Z,10.00
2018-12-10T18:52:57.769Z,10.00
2018-12-10T18:55:28.226Z,10.00
2018-12-10T18:57:59.544Z,10.00
2018-12-10T19:00:30.099Z,10.00
2018-12-10T19:03:00.907Z,9.90
2018-12-10T19:05:31.834Z,10.70
2018-12-10T19:08:02.787Z,9.90
2018-12-10T19:10:33.629Z,9.90
2018-12-10T19:13:04.220Z,9.80
2018-12-10T19:15:34.993Z,9.80
2018-12-10T19:18:05.638Z,9.80
2018-12-10T19:20:36.425Z,9.80
2018-12-10T19:23:07.139Z,9.80
2018-12-10T19:25:38.675Z,9.80
2018-12-10T19:28:09.391Z,9.90
2018-12-10T19:30:40.104Z,9.80
2018-12-10T19:33:10.892Z,9.90
2018-12-10T19:35:41.766Z,9.90
2018-12-10T19:38:12.651Z,9.90
2018-12-10T19:40:43.230Z,9.90
2018-12-10T19:43:13.897Z,9.90
2018-12-10T19:45:44.818Z,9.80
2018-12-10T19:48:15.580Z,9.80
2018-12-10T19:50:46.211Z,9.90
2018-12-10T19:53:17.052Z,9.90
2018-12-10T19:55:47.932Z,9.90
2018-12-10T19:58:18.564Z,9.90
2018-12-10T20:00:49.392Z,9.80
2018-12-10T20:03:20.117Z,9.90
2018-12-10T20:05:55.440Z,9.80
2018-12-10T20:08:26.028Z,9.80
2018-12-10T20:10:56.947Z,9.80
2018-12-10T20:13:27.524Z,9.90
2018-12-10T20:15:58.240Z,9.90
2018-12-10T20:18:28.971Z,9.90
2018-12-10T20:20:59.791Z,9.90
2018-12-10T20:23:30.360Z,9.90
2018-12-10T20:26:00.985Z,9.90
2018-12-10T20:28:31.845Z,9.90
2018-12-10T20:31:03.089Z,9.90
2018-12-10T20:33:33.934Z,9.90
2018-12-10T20:36:04.551Z,9.90
2018-12-10T20:38:35.149Z,9.90
2018-12-10T20:41:05.726Z,9.90
2018-12-10T20:43:36.398Z,9.90
2018-12-10T20:46:06.952Z,9.90
2018-12-10T20:48:38.635Z,9.90
2018-12-10T20:51:09.222Z,9.90
2018-12-10T20:53:39.915Z,9.90
2018-12-10T20:56:10.502Z,9.90
2018-12-10T20:58:41.323Z,9.90
2018-12-10T21:01:12.050Z,9.90
2018-12-10T21:03:42.948Z,9.90
2018-12-10T21:06:18.450Z,9.80
2018-12-10T21:08:49.171Z,9.80
2018-12-10T21:11:20.085Z,9.80
2018-12-10T21:13:50.815Z,9.80
2018-12-10T21:16:21.537Z,9.80
2018-12-10T21:18:52.207Z,9.70
2018-12-10T21:21:22.844Z,9.70
2018-12-10T21:23:53.639Z,9.70
2018-12-10T21:26:24.533Z,9.70
2018-12-10T21:28:55.256Z,9.70
2018-12-10T21:31:25.983Z,9.60
2018-12-10T21:33:56.708Z,9.60
2018-12-10T21:36:27.173Z,9.60
2018-12-10T21:38:57.757Z,9.70
2018-12-10T21:41:28.540Z,9.70
2018-12-10T21:43:59.193Z,9.60
2018-12-10T21:46:29.887Z,9.60
2018-12-10T21:49:00.464Z,9.60
2018-12-10T21:51:31.218Z,9.70
2018-12-10T21:54:01.899Z,9.60
2018-12-10T21:56:32.391Z,9.60
2018-12-10T21:59:02.977Z,9.50
2018-12-10T22:01:33.730Z,9.40
2018-12-10T22:04:04.650Z,9.30
2018-12-10T22:06:35.248Z,9.20
2018-12-10T22:09:06.741Z,9.10
2018-12-10T22:11:38.532Z,9.10
2018-12-10T22:14:09.183Z,8.90
2018-12-10T22:16:39.905Z,8.90
2018-12-10T22:19:10.617Z,8.70
2018-12-10T22:21:41.395Z,8.60
2018-12-10T22:24:12.605Z,8.50
2018-12-10T22:26:43.305Z,8.40
2018-12-10T22:29:13.863Z,8.40
2018-12-10T22:31:44.682Z,8.30
2018-12-10T22:34:15.489Z,8.20
2018-12-10T22:36:46.165Z,8.20
2018-12-10T22:39:16.891Z,8.10
2018-12-10T22:41:48.372Z,8.00
2018-12-10T22:44:18.973Z,8.00
2018-12-10T22:46:49.628Z,7.90
2018-12-10T22:49:20.484Z,7.90
2018-12-10T22:51:51.280Z,7.80
2018-12-10T22:54:21.862Z,7.80
2018-12-10T22:56:52.537Z,7.80
2018-12-10T22:59:23.108Z,7.70
2018-12-10T23:01:53.717Z,7.70
2018-12-10T23:04:24.274Z,7.70
2018-12-10T23:06:54.888Z,7.60
2018-12-10T23:09:25.515Z,7.60
2018-12-10T23:11:56.321Z,7.60
2018-12-10T23:14:27.085Z,7.50
2018-12-10T23:16:58.103Z,7.60
2018-12-10T23:19:28.728Z,7.50
2018-12-10T23:21:59.491Z,7.50
2018-12-10T23:24:30.329Z,7.50
2018-12-10T23:27:01.246Z,7.50
2018-12-10T23:29:31.975Z,7.50
2018-12-10T23:32:02.763Z,7.40
2018-12-10T23:34:33.409Z,7.40
2018-12-10T23:37:03.932Z,7.40
2018-12-10T23:39:34.617Z,7.30
2018-12-10T23:42:05.259Z,7.30
2018-12-10T23:44:40.801Z,7.30
2018-12-10T23:47:11.521Z,7.20
2018-12-10T23:49:41.992Z,7.20
2018-12-10T23:52:12.660Z,7.10
2018-12-10T23:54:43.189Z,7.10
2018-12-10T23:57:13.862Z,7.10
2018-12-10T23:59:44.489Z,7.10
